sensor_id;sensor_type;location;lat;lon;timestamp;pressure;altitude;pressure_sealevel;temperature;humidity
42411;BME280;28056;51.112;0.984;2022-07-21T00:04:47;100983.95;;;22.24;46.73
42411;BME280;28056;51.112;0.984;2022-07-21T00:07:14;100985.23;;;21.84;46.86
42411;BME280;28056;51.112;0.984;2022-07-21T00:09:42;100985.43;;;22.09;46.98
42411;BME280;28056;51.112;0.984;2022-07-21T00:12:09;100983.38;;;21.88;47.51
42411;BME280;28056;51.112;0.984;2022-07-21T00:14:37;100982.99;;;22.01;47.38
42411;BME280;28056;51.112;0.984;2022-07-21T00:17:04;100985.17;;;21.63;48.09
42411;BME280;28056;51.112;0.984;2022-07-21T00:19:32;100982.65;;;21.64;48.57
42411;BME280;28056;51.112;0.984;2022-07-21T00:21:59;100984.99;;;20.99;49.65
42411;BME280;28056;51.112;0.984;2022-07-21T00:24:27;100983.20;;;21.90;48.45
42411;BME280;28056;51.112;0.984;2022-07-21T00:26:54;100984.23;;;22.05;47.81
42411;BME280;28056;51.112;0.984;2022-07-21T00:29:22;100985.17;;;22.35;47.27
42411;BME280;28056;51.112;0.984;2022-07-21T00:31:49;100984.06;;;21.44;49.20
42411;BME280;28056;51.112;0.984;2022-07-21T00:34:17;100982.95;;;21.00;50.15
42411;BME280;28056;51.112;0.984;2022-07-21T00:36:44;100979.39;;;20.32;52.29
42411;BME280;28056;51.112;0.984;2022-07-21T00:39:12;100981.16;;;19.79;54.30
42411;BME280;28056;51.112;0.984;2022-07-21T00:41:40;100982.61;;;18.70;57.54
42411;BME280;28056;51.112;0.984;2022-07-21T00:44:19;100974.97;;;18.25;59.17
42411;BME280;28056;51.112;0.984;2022-07-21T00:46:46;100973.10;;;18.22;60.21
42411;BME280;28056;51.112;0.984;2022-07-21T00:49:14;100975.34;;;17.82;61.91
42411;BME280;28056;51.112;0.984;2022-07-21T00:51:41;100972.30;;;17.71;62.31
42411;BME280;28056;51.112;0.984;2022-07-21T00:54:09;100972.35;;;17.48;62.45
42411;BME280;28056;51.112;0.984;2022-07-21T00:56:38;100979.12;;;17.05;64.54
42411;BME280;28056;51.112;0.984;2022-07-21T00:59:05;100979.91;;;17.66;64.04
42411;BME280;28056;51.112;0.984;2022-07-21T01:01:33;100976.23;;;17.41;64.60
42411;BME280;28056;51.112;0.984;2022-07-21T01:04:01;100979.67;;;17.40;65.01
42411;BME280;28056;51.112;0.984;2022-07-21T01:06:29;100980.57;;;17.42;65.40
42411;BME280;28056;51.112;0.984;2022-07-21T01:08:56;100978.03;;;17.83;64.56
42411;BME280;28056;51.112;0.984;2022-07-21T01:11:25;100974.91;;;18.11;63.65
42411;BME280;28056;51.112;0.984;2022-07-21T01:13:52;100971.33;;;18.85;61.84
42411;BME280;28056;51.112;0.984;2022-07-21T01:16:20;100972.17;;;18.87;61.50
42411;BME280;28056;51.112;0.984;2022-07-21T01:18:48;100975.72;;;18.14;63.80
42411;BME280;28056;51.112;0.984;2022-07-21T01:21:28;100973.61;;;17.94;64.14
42411;BME280;28056;51.112;0.984;2022-07-21T01:23:55;100970.74;;;18.13;63.96
42411;BME280;28056;51.112;0.984;2022-07-21T01:26:23;100968.88;;;17.79;64.76
42411;BME280;28056;51.112;0.984;2022-07-21T01:28:51;100966.59;;;17.64;64.96
42411;BME280;28056;51.112;0.984;2022-07-21T01:31:19;100964.49;;;17.98;64.99
42411;BME280;28056;51.112;0.984;2022-07-21T01:33:47;100962.99;;;17.46;65.67
42411;BME280;28056;51.112;0.984;2022-07-21T01:36:15;100969.56;;;17.04;66.99
42411;BME280;28056;51.112;0.984;2022-07-21T01:38:43;100962.75;;;16.38;68.13
42411;BME280;28056;51.112;0.984;2022-07-21T01:41:10;100962.92;;;16.48;68.78
42411;BME280;28056;51.112;0.984;2022-07-21T01:43:37;100964.26;;;16.17;69.66
42411;BME280;28056;51.112;0.984;2022-07-21T01:46:05;100961.40;;;16.13;70.20
42411;BME280;28056;51.112;0.984;2022-07-21T01:48:33;100966.06;;;15.84;71.52
42411;BME280;28056;51.112;0.984;2022-07-21T01:51:00;100971.91;;;16.01;72.24
42411;BME280;28056;51.112;0.984;2022-07-21T01:53:28;100973.96;;;16.36;71.36
42411;BME280;28056;51.112;0.984;2022-07-21T01:55:55;100976.89;;;16.09;71.85
42411;BME280;28056;51.112;0.984;2022-07-21T01:58:23;100971.50;;;16.49;69.83
42411;BME280;28056;51.112;0.984;2022-07-21T02:00:50;100967.90;;;16.97;68.57
42411;BME280;28056;51.112;0.984;2022-07-21T02:03:18;100965.93;;;17.67;66.78
42411;BME280;28056;51.112;0.984;2022-07-21T02:05:45;100968.42;;;16.84;67.74
42411;BME280;28056;51.112;0.984;2022-07-21T02:08:13;100969.78;;;16.86;67.93
42411;BME280;28056;51.112;0.984;2022-07-21T02:10:41;100972.51;;;16.67;68.86
42411;BME280;28056;51.112;0.984;2022-07-21T02:13:08;100973.44;;;17.35;67.01
42411;BME280;28056;51.112;0.984;2022-07-21T02:15:36;100975.22;;;17.13;67.33
42411;BME280;28056;51.112;0.984;2022-07-21T02:18:03;100971.49;;;17.38;66.82
42411;BME280;28056;51.112;0.984;2022-07-21T02:20:31;100977.59;;;17.31;67.35
42411;BME280;28056;51.112;0.984;2022-07-21T02:22:58;100980.86;;;16.77;68.97
42411;BME280;28056;51.112;0.984;2022-07-21T02:25:26;100982.46;;;16.84;68.65
42411;BME280;28056;51.112;0.984;2022-07-21T02:27:53;100990.16;;;17.03;67.56
42411;BME280;28056;51.112;0.984;2022-07-21T02:30:21;100991.40;;;16.55;68.41
42411;BME280;28056;51.112;0.984;2022-07-21T02:32:48;100995.11;;;17.63;66.30
42411;BME280;28056;51.112;0.984;2022-07-21T02:35:15;100997.33;;;17.76;65.44
42411;BME280;28056;51.112;0.984;2022-07-21T02:37:43;100993.74;;;17.85;64.39
42411;BME280;28056;51.112;0.984;2022-07-21T02:40:11;100998.64;;;18.20;63.53
42411;BME280;28056;51.112;0.984;2022-07-21T02:42:39;101000.33;;;18.48;62.59
42411;BME280;28056;51.112;0.984;2022-07-21T02:45:08;101001.10;;;18.79;61.79
42411;BME280;28056;51.112;0.984;2022-07-21T02:47:48;101002.35;;;18.85;60.64
42411;BME280;28056;51.112;0.984;2022-07-21T02:50:16;101000.78;;;19.29;59.03
42411;BME280;28056;51.112;0.984;2022-07-21T02:52:44;101005.64;;;19.95;58.19
42411;BME280;28056;51.112;0.984;2022-07-21T02:55:11;101007.08;;;19.12;59.72
42411;BME280;28056;51.112;0.984;2022-07-21T02:57:39;101009.29;;;19.18;59.33
42411;BME280;28056;51.112;0.984;2022-07-21T03:00:09;101008.30;;;18.92;60.20
42411;BME280;28056;51.112;0.984;2022-07-21T03:02:37;101004.95;;;18.81;60.13
42411;BME280;28056;51.112;0.984;2022-07-21T03:05:05;101005.90;;;18.49;60.11
42411;BME280;28056;51.112;0.984;2022-07-21T03:07:33;101007.81;;;18.38;61.04
42411;BME280;28056;51.112;0.984;2022-07-21T03:10:00;101008.53;;;18.32;61.10
42411;BME280;28056;51.112;0.984;2022-07-21T03:12:28;101006.60;;;17.87;62.65
42411;BME280;28056;51.112;0.984;2022-07-21T03:14:56;101005.13;;;17.84;62.79
42411;BME280;28056;51.112;0.984;2022-07-21T03:17:23;101009.70;;;17.84;63.27
42411;BME280;28056;51.112;0.984;2022-07-21T03:19:50;101016.51;;;17.32;64.15
42411;BME280;28056;51.112;0.984;2022-07-21T03:22:18;101015.31;;;17.31;63.97
42411;BME280;28056;51.112;0.984;2022-07-21T03:24:45;101019.54;;;17.66;64.55
42411;BME280;28056;51.112;0.984;2022-07-21T03:27:13;101021.67;;;16.75;65.65
42411;BME280;28056;51.112;0.984;2022-07-21T03:29:40;101019.76;;;16.64;66.50
42411;BME280;28056;51.112;0.984;2022-07-21T03:32:07;101017.17;;;16.67;66.78
42411;BME280;28056;51.112;0.984;2022-07-21T03:34:35;101019.09;;;16.71;66.27
42411;BME280;28056;51.112;0.984;2022-07-21T03:37:02;101022.05;;;16.71;66.95
42411;BME280;28056;51.112;0.984;2022-07-21T03:39:29;101023.87;;;16.33;67.82
42411;BME280;28056;51.112;0.984;2022-07-21T03:41:56;101023.07;;;16.67;67.39
42411;BME280;28056;51.112;0.984;2022-07-21T03:44:24;101024.73;;;17.05;66.79
42411;BME280;28056;51.112;0.984;2022-07-21T03:46:51;101026.46;;;17.01;66.76
42411;BME280;28056;51.112;0.984;2022-07-21T03:49:19;101027.29;;;17.08;66.28
42411;BME280;28056;51.112;0.984;2022-07-21T03:51:46;101027.91;;;16.48;66.78
42411;BME280;28056;51.112;0.984;2022-07-21T03:54:14;101031.04;;;16.58;67.61
42411;BME280;28056;51.112;0.984;2022-07-21T03:56:41;101030.87;;;16.70;67.31
42411;BME280;28056;51.112;0.984;2022-07-21T03:59:08;101032.87;;;16.62;67.33
42411;BME280;28056;51.112;0.984;2022-07-21T04:01:36;101031.89;;;16.47;67.25
42411;BME280;28056;51.112;0.984;2022-07-21T04:04:04;101035.55;;;16.21;67.95
42411;BME280;28056;51.112;0.984;2022-07-21T04:06:31;101040.52;;;16.52;68.00
42411;BME280;28056;51.112;0.984;2022-07-21T04:08:59;101042.25;;;16.44;66.66
42411;BME280;28056;51.112;0.984;2022-07-21T04:11:26;101051.12;;;16.39;66.44
42411;BME280;28056;51.112;0.984;2022-07-21T04:13:53;101054.56;;;17.00;66.19
42411;BME280;28056;51.112;0.984;2022-07-21T04:16:21;101058.52;;;16.64;66.25
42411;BME280;28056;51.112;0.984;2022-07-21T04:18:49;101059.53;;;16.75;65.92
42411;BME280;28056;51.112;0.984;2022-07-21T04:21:16;101057.20;;;17.01;65.54
42411;BME280;28056;51.112;0.984;2022-07-21T04:23:44;101060.61;;;16.92;65.06
42411;BME280;28056;51.112;0.984;2022-07-21T04:26:11;101062.79;;;16.90;65.02
42411;BME280;28056;51.112;0.984;2022-07-21T04:28:38;101066.83;;;16.33;66.39
42411;BME280;28056;51.112;0.984;2022-07-21T04:31:06;101058.42;;;15.94;67.17
42411;BME280;28056;51.112;0.984;2022-07-21T04:33:33;101056.73;;;16.57;65.22
42411;BME280;28056;51.112;0.984;2022-07-21T04:36:01;101056.59;;;16.54;65.93
42411;BME280;28056;51.112;0.984;2022-07-21T04:38:28;101055.11;;;16.99;64.94
42411;BME280;28056;51.112;0.984;2022-07-21T04:40:55;101057.80;;;16.48;65.95
42411;BME280;28056;51.112;0.984;2022-07-21T04:43:23;101062.30;;;16.40;66.59
42411;BME280;28056;51.112;0.984;2022-07-21T04:45:51;101063.21;;;16.55;67.37
42411;BME280;28056;51.112;0.984;2022-07-21T04:48:19;101067.94;;;16.34;66.69
42411;BME280;28056;51.112;0.984;2022-07-21T04:50:46;101072.35;;;16.28;66.83
42411;BME280;28056;51.112;0.984;2022-07-21T04:53:14;101074.46;;;16.05;67.84
42411;BME280;28056;51.112;0.984;2022-07-21T04:55:41;101080.55;;;16.50;67.87
42411;BME280;28056;51.112;0.984;2022-07-21T04:58:09;101081.97;;;16.01;68.07
42411;BME280;28056;51.112;0.984;2022-07-21T05:00:36;101084.66;;;16.21;67.70
42411;BME280;28056;51.112;0.984;2022-07-21T05:03:04;101080.46;;;16.53;67.09
42411;BME280;28056;51.112;0.984;2022-07-21T05:05:31;101082.35;;;16.30;67.35
42411;BME280;28056;51.112;0.984;2022-07-21T05:07:59;101084.26;;;16.06;67.73
42411;BME280;28056;51.112;0.984;2022-07-21T05:10:26;101085.16;;;16.00;67.35
42411;BME280;28056;51.112;0.984;2022-07-21T05:12:54;101086.61;;;16.20;66.58
42411;BME280;28056;51.112;0.984;2022-07-21T05:15:21;101085.33;;;16.38;66.34
42411;BME280;28056;51.112;0.984;2022-07-21T05:17:49;101091.06;;;16.21;66.14
42411;BME280;28056;51.112;0.984;2022-07-21T05:20:16;101098.64;;;15.85;67.01
42411;BME280;28056;51.112;0.984;2022-07-21T05:22:43;101097.63;;;16.25;66.71
42411;BME280;28056;51.112;0.984;2022-07-21T05:25:13;101099.50;;;16.47;66.53
42411;BME280;28056;51.112;0.984;2022-07-21T05:27:40;101102.61;;;16.40;67.04
42411;BME280;28056;51.112;0.984;2022-07-21T05:30:09;101105.14;;;16.26;67.04
42411;BME280;28056;51.112;0.984;2022-07-21T05:32:36;101107.01;;;16.31;67.40
42411;BME280;28056;51.112;0.984;2022-07-21T05:35:05;101108.06;;;16.63;67.57
42411;BME280;28056;51.112;0.984;2022-07-21T05:37:33;101111.83;;;16.50;66.68
42411;BME280;28056;51.112;0.984;2022-07-21T05:40:00;101114.79;;;16.71;66.35
42411;BME280;28056;51.112;0.984;2022-07-21T05:42:28;101119.12;;;16.35;66.99
42411;BME280;28056;51.112;0.984;2022-07-21T05:44:55;101117.84;;;16.08;67.42
42411;BME280;28056;51.112;0.984;2022-07-21T05:47:22;101118.71;;;16.03;67.54
42411;BME280;28056;51.112;0.984;2022-07-21T05:49:50;101117.34;;;16.27;68.34
42411;BME280;28056;51.112;0.984;2022-07-21T05:52:18;101117.70;;;16.01;67.73
42411;BME280;28056;51.112;0.984;2022-07-21T05:54:45;101116.80;;;16.21;68.19
42411;BME280;28056;51.112;0.984;2022-07-21T05:57:13;101116.80;;;16.12;67.83
42411;BME280;28056;51.112;0.984;2022-07-21T05:59:41;101117.79;;;16.48;67.43
42411;BME280;28056;51.112;0.984;2022-07-21T06:02:08;101120.23;;;16.35;66.53
42411;BME280;28056;51.112;0.984;2022-07-21T06:04:35;101130.64;;;17.09;65.80
42411;BME280;28056;51.112;0.984;2022-07-21T06:07:03;101131.28;;;16.51;66.15
42411;BME280;28056;51.112;0.984;2022-07-21T06:09:31;101132.46;;;16.54;65.97
42411;BME280;28056;51.112;0.984;2022-07-21T06:11:59;101135.74;;;16.68;65.02
42411;BME280;28056;51.112;0.984;2022-07-21T06:14:26;101133.38;;;16.38;65.48
42411;BME280;28056;51.112;0.984;2022-07-21T06:16:54;101140.49;;;17.02;64.23
42411;BME280;28056;51.112;0.984;2022-07-21T06:19:22;101141.54;;;17.11;64.34
42411;BME280;28056;51.112;0.984;2022-07-21T06:21:50;101139.30;;;17.50;63.30
42411;BME280;28056;51.112;0.984;2022-07-21T06:24:17;101138.38;;;17.96;62.94
42411;BME280;28056;51.112;0.984;2022-07-21T06:26:44;101139.12;;;18.03;61.56
42411;BME280;28056;51.112;0.984;2022-07-21T06:29:12;101142.57;;;17.64;62.12
42411;BME280;28056;51.112;0.984;2022-07-21T06:31:40;101144.43;;;17.60;61.70
42411;BME280;28056;51.112;0.984;2022-07-21T06:34:07;101148.01;;;18.20;60.91
42411;BME280;28056;51.112;0.984;2022-07-21T06:36:35;101151.90;;;17.20;61.43
42411;BME280;28056;51.112;0.984;2022-07-21T06:39:03;101153.72;;;17.66;61.89
42411;BME280;28056;51.112;0.984;2022-07-21T06:41:31;101160.80;;;17.92;61.01
42411;BME280;28056;51.112;0.984;2022-07-21T06:43:59;101164.31;;;17.88;60.74
42411;BME280;28056;51.112;0.984;2022-07-21T06:46:27;101169.64;;;17.56;60.19
42411;BME280;28056;51.112;0.984;2022-07-21T06:48:54;101176.53;;;17.55;60.96
42411;BME280;28056;51.112;0.984;2022-07-21T06:51:22;101178.75;;;17.77;60.71
42411;BME280;28056;51.112;0.984;2022-07-21T06:53:49;101180.18;;;17.56;60.47
42411;BME280;28056;51.112;0.984;2022-07-21T06:56:17;101188.15;;;18.46;58.44
42411;BME280;28056;51.112;0.984;2022-07-21T06:58:45;101195.71;;;18.05;58.82
42411;BME280;28056;51.112;0.984;2022-07-21T07:01:14;101196.67;;;18.09;59.07
42411;BME280;28056;51.112;0.984;2022-07-21T07:03:41;101195.49;;;17.94;59.30
42411;BME280;28056;51.112;0.984;2022-07-21T07:06:09;101195.46;;;18.78;57.79
42411;BME280;28056;51.112;0.984;2022-07-21T07:08:37;101191.50;;;18.42;57.79
42411;BME280;28056;51.112;0.984;2022-07-21T07:11:05;101190.04;;;18.23;58.36
42411;BME280;28056;51.112;0.984;2022-07-21T07:13:33;101191.07;;;17.96;59.20
42411;BME280;28056;51.112;0.984;2022-07-21T07:16:01;101194.36;;;18.00;59.37
42411;BME280;28056;51.112;0.984;2022-07-21T07:18:29;101198.24;;;17.46;60.71
42411;BME280;28056;51.112;0.984;2022-07-21T07:20:56;101201.93;;;17.76;60.79
42411;BME280;28056;51.112;0.984;2022-07-21T07:23:23;101204.51;;;17.77;59.61
42411;BME280;28056;51.112;0.984;2022-07-21T07:25:51;101205.67;;;18.21;59.58
42411;BME280;28056;51.112;0.984;2022-07-21T07:28:19;101203.46;;;18.51;59.13
42411;BME280;28056;51.112;0.984;2022-07-21T07:30:46;101205.43;;;18.43;58.89
42411;BME280;28056;51.112;0.984;2022-07-21T07:33:14;101204.98;;;18.16;59.77
42411;BME280;28056;51.112;0.984;2022-07-21T07:35:42;101211.31;;;18.08;60.23
42411;BME280;28056;51.112;0.984;2022-07-21T07:38:13;101210.16;;;19.02;58.21
42411;BME280;28056;51.112;0.984;2022-07-21T07:40:40;101210.32;;;18.41;58.77
42411;BME280;28056;51.112;0.984;2022-07-21T07:43:08;101208.72;;;17.79;59.08
42411;BME280;28056;51.112;0.984;2022-07-21T07:45:36;101210.74;;;17.96;59.28
42411;BME280;28056;51.112;0.984;2022-07-21T07:48:06;101211.08;;;18.35;58.29
42411;BME280;28056;51.112;0.984;2022-07-21T07:50:33;101211.75;;;18.59;57.63
42411;BME280;28056;51.112;0.984;2022-07-21T07:53:00;101209.83;;;18.62;58.15
42411;BME280;28056;51.112;0.984;2022-07-21T07:55:28;101209.22;;;18.72;57.54
42411;BME280;28056;51.112;0.984;2022-07-21T07:57:56;101210.76;;;18.88;58.26
42411;BME280;28056;51.112;0.984;2022-07-21T08:00:23;101208.74;;;19.24;56.32
42411;BME280;28056;51.112;0.984;2022-07-21T08:02:50;101213.23;;;19.62;55.06
42411;BME280;28056;51.112;0.984;2022-07-21T08:05:17;101215.56;;;19.00;56.54
42411;BME280;28056;51.112;0.984;2022-07-21T08:07:45;101218.13;;;19.67;55.24
42411;BME280;28056;51.112;0.984;2022-07-21T08:10:13;101223.46;;;18.82;55.94
42411;BME280;28056;51.112;0.984;2022-07-21T08:12:41;101225.88;;;19.91;54.66
42411;BME280;28056;51.112;0.984;2022-07-21T08:15:10;101225.40;;;19.92;53.50
42411;BME280;28056;51.112;0.984;2022-07-21T08:17:37;101228.49;;;19.56;54.93
42411;BME280;28056;51.112;0.984;2022-07-21T08:20:05;101230.57;;;18.72;56.69
42411;BME280;28056;51.112;0.984;2022-07-21T08:22:33;101229.79;;;19.51;55.44
42411;BME280;28056;51.112;0.984;2022-07-21T08:25:01;101233.27;;;19.95;54.38
42411;BME280;28056;51.112;0.984;2022-07-21T08:27:28;101232.98;;;19.77;54.31
42411;BME280;28056;51.112;0.984;2022-07-21T08:29:56;101232.74;;;20.60;53.66
42411;BME280;28056;51.112;0.984;2022-07-21T08:32:24;101234.37;;;19.43;52.94
42411;BME280;28056;51.112;0.984;2022-07-21T08:34:51;101234.51;;;19.39;54.25
42411;BME280;28056;51.112;0.984;2022-07-21T08:37:19;101238.40;;;18.99;56.02
42411;BME280;28056;51.112;0.984;2022-07-21T08:39:47;101234.44;;;19.23;55.27
42411;BME280;28056;51.112;0.984;2022-07-21T08:42:15;101233.18;;;19.27;56.17
42411;BME280;28056;51.112;0.984;2022-07-21T08:44:43;101235.90;;;19.15;56.59
42411;BME280;28056;51.112;0.984;2022-07-21T08:47:11;101231.30;;;20.29;54.61
42411;BME280;28056;51.112;0.984;2022-07-21T08:49:39;101232.03;;;20.09;53.71
42411;BME280;28056;51.112;0.984;2022-07-21T08:52:07;101231.18;;;19.37;54.74
42411;BME280;28056;51.112;0.984;2022-07-21T08:54:35;101236.73;;;19.30;55.01
42411;BME280;28056;51.112;0.984;2022-07-21T08:57:03;101237.43;;;19.09;54.73
42411;BME280;28056;51.112;0.984;2022-07-21T08:59:30;101239.05;;;20.23;53.08
42411;BME280;28056;51.112;0.984;2022-07-21T09:01:58;101240.28;;;20.49;52.61
42411;BME280;28056;51.112;0.984;2022-07-21T09:04:28;101242.23;;;20.32;51.16
42411;BME280;28056;51.112;0.984;2022-07-21T09:06:58;101243.87;;;21.43;50.01
42411;BME280;28056;51.112;0.984;2022-07-21T09:09:27;101246.79;;;22.05;49.75
42411;BME280;28056;51.112;0.984;2022-07-21T09:11:56;101249.07;;;23.19;46.62
42411;BME280;28056;51.112;0.984;2022-07-21T09:14:25;101246.97;;;21.86;46.88
42411;BME280;28056;51.112;0.984;2022-07-21T09:16:55;101253.92;;;21.32;48.30
42411;BME280;28056;51.112;0.984;2022-07-21T09:19:27;101258.97;;;21.89;49.31
42411;BME280;28056;51.112;0.984;2022-07-21T09:21:57;101263.49;;;22.92;46.62
42411;BME280;28056;51.112;0.984;2022-07-21T09:24:28;101265.72;;;23.63;44.42
42411;BME280;28056;51.112;0.984;2022-07-21T09:26:59;101269.78;;;23.61;45.40
42411;BME280;28056;51.112;0.984;2022-07-21T09:29:35;101274.69;;;24.19;41.79
42411;BME280;28056;51.112;0.984;2022-07-21T09:32:15;101274.50;;;23.57;41.53
42411;BME280;28056;51.112;0.984;2022-07-21T09:34:43;101270.23;;;24.37;41.00
42411;BME280;28056;51.112;0.984;2022-07-21T09:37:11;101272.34;;;24.61;41.22
42411;BME280;28056;51.112;0.984;2022-07-21T09:39:44;101274.84;;;23.84;41.95
42411;BME280;28056;51.112;0.984;2022-07-21T09:42:22;101275.86;;;25.18;39.72
42411;BME280;28056;51.112;0.984;2022-07-21T09:44:51;101275.46;;;24.10;41.88
42411;BME280;28056;51.112;0.984;2022-07-21T09:47:20;101278.48;;;25.28;40.79
42411;BME280;28056;51.112;0.984;2022-07-21T09:49:48;101279.99;;;24.89;40.15
42411;BME280;28056;51.112;0.984;2022-07-21T09:52:22;101283.78;;;24.98;38.35
42411;BME280;28056;51.112;0.984;2022-07-21T09:54:50;101283.25;;;24.81;39.30
42411;BME280;28056;51.112;0.984;2022-07-21T09:57:19;101279.86;;;25.00;38.26
42411;BME280;28056;51.112;0.984;2022-07-21T09:59:48;101285.87;;;25.59;38.23
42411;BME280;28056;51.112;0.984;2022-07-21T10:02:20;101290.13;;;24.30;38.94
42411;BME280;28056;51.112;0.984;2022-07-21T10:04:56;101293.50;;;24.56;40.16
42411;BME280;28056;51.112;0.984;2022-07-21T10:07:24;101292.78;;;25.26;39.79
42411;BME280;28056;51.112;0.984;2022-07-21T10:09:53;101295.34;;;24.67;39.22
42411;BME280;28056;51.112;0.984;2022-07-21T10:12:21;101300.22;;;23.64;39.89
42411;BME280;28056;51.112;0.984;2022-07-21T10:14:48;101302.21;;;23.47;40.83
42411;BME280;28056;51.112;0.984;2022-07-21T10:17:17;101294.88;;;24.37;40.57
42411;BME280;28056;51.112;0.984;2022-07-21T10:19:57;101298.61;;;25.54;40.03
42411;BME280;28056;51.112;0.984;2022-07-21T10:22:36;101298.38;;;25.16;38.96
42411;BME280;28056;51.112;0.984;2022-07-21T10:25:08;101299.98;;;24.60;38.67
42411;BME280;28056;51.112;0.984;2022-07-21T10:27:35;101302.96;;;25.58;39.22
42411;BME280;28056;51.112;0.984;2022-07-21T10:30:04;101306.34;;;26.64;39.02
42411;BME280;28056;51.112;0.984;2022-07-21T10:32:33;101302.97;;;27.56;36.05
42411;BME280;28056;51.112;0.984;2022-07-21T10:37:51;101306.68;;;26.13;35.54
42411;BME280;28056;51.112;0.984;2022-07-21T10:40:35;101303.96;;;25.43;35.67
42411;BME280;28056;51.112;0.984;2022-07-21T10:44:40;101309.49;;;25.56;37.14
42411;BME280;28056;51.112;0.984;2022-07-21T10:47:09;101315.31;;;26.33;36.49
42411;BME280;28056;51.112;0.984;2022-07-21T10:49:55;101317.67;;;26.46;38.20
42411;BME280;28056;51.112;0.984;2022-07-21T10:53:29;101314.77;;;26.35;37.10
42411;BME280;28056;51.112;0.984;2022-07-21T10:55:57;101316.49;;;26.53;36.47
42411;BME280;28056;51.112;0.984;2022-07-21T10:58:26;101318.57;;;27.29;37.16
42411;BME280;28056;51.112;0.984;2022-07-21T11:00:55;101314.15;;;27.16;34.67
42411;BME280;28056;51.112;0.984;2022-07-21T11:03:25;101312.68;;;28.31;33.33
42411;BME280;28056;51.112;0.984;2022-07-21T11:06:25;101312.87;;;28.42;32.73
42411;BME280;28056;51.112;0.984;2022-07-21T11:09:05;101315.99;;;27.47;33.84
42411;BME280;28056;51.112;0.984;2022-07-21T11:11:34;101310.82;;;28.83;32.32
42411;BME280;28056;51.112;0.984;2022-07-21T11:14:07;101312.46;;;27.42;32.52
42411;BME280;28056;51.112;0.984;2022-07-21T11:17:26;101310.35;;;26.57;34.61
42411;BME280;28056;51.112;0.984;2022-07-21T11:19:55;101313.10;;;27.33;33.85
42411;BME280;28056;51.112;0.984;2022-07-21T11:22:24;101316.77;;;28.38;33.28
42411;BME280;28056;51.112;0.984;2022-07-21T11:24:56;101317.51;;;28.59;33.66
42411;BME280;28056;51.112;0.984;2022-07-21T11:27:24;101315.30;;;27.91;31.92
42411;BME280;28056;51.112;0.984;2022-07-21T11:29:55;101320.07;;;28.80;35.21
42411;BME280;28056;51.112;0.984;2022-07-21T11:32:23;101316.21;;;28.42;33.44
42411;BME280;28056;51.112;0.984;2022-07-21T11:34:52;101313.72;;;29.85;31.42
42411;BME280;28056;51.112;0.984;2022-07-21T11:37:28;101316.02;;;29.92;30.66
42411;BME280;28056;51.112;0.984;2022-07-21T11:39:56;101320.21;;;28.79;31.99
42411;BME280;28056;51.112;0.984;2022-07-21T11:42:25;101319.95;;;28.79;31.88
42411;BME280;28056;51.112;0.984;2022-07-21T11:44:54;101317.25;;;28.77;29.41
42411;BME280;28056;51.112;0.984;2022-07-21T11:47:22;101313.88;;;29.16;32.17
42411;BME280;28056;51.112;0.984;2022-07-21T11:49:52;101315.76;;;29.33;30.68
42411;BME280;28056;51.112;0.984;2022-07-21T11:52:25;101313.35;;;29.46;31.43
42411;BME280;28056;51.112;0.984;2022-07-21T11:54:54;101314.94;;;29.37;30.57
42411;BME280;28056;51.112;0.984;2022-07-21T11:57:24;101313.72;;;29.92;30.74
42411;BME280;28056;51.112;0.984;2022-07-21T11:59:53;101311.67;;;29.62;31.95
42411;BME280;28056;51.112;0.984;2022-07-21T12:02:22;101307.94;;;29.64;29.23
42411;BME280;28056;51.112;0.984;2022-07-21T12:04:51;101306.84;;;29.09;30.46
42411;BME280;28056;51.112;0.984;2022-07-21T12:07:21;101307.77;;;30.61;30.40
42411;BME280;28056;51.112;0.984;2022-07-21T12:09:51;101309.30;;;31.34;28.44
42411;BME280;28056;51.112;0.984;2022-07-21T12:12:37;101310.19;;;30.91;28.98
42411;BME280;28056;51.112;0.984;2022-07-21T12:15:14;101307.75;;;29.14;30.77
42411;BME280;28056;51.112;0.984;2022-07-21T12:17:45;101306.91;;;30.46;31.18
42411;BME280;28056;51.112;0.984;2022-07-21T12:20:14;101307.13;;;30.42;29.97
42411;BME280;28056;51.112;0.984;2022-07-21T12:22:43;101307.62;;;30.38;29.00
42411;BME280;28056;51.112;0.984;2022-07-21T12:25:13;101305.55;;;29.25;29.98
42411;BME280;28056;51.112;0.984;2022-07-21T12:27:42;101306.69;;;29.69;31.29
42411;BME280;28056;51.112;0.984;2022-07-21T12:30:28;101307.45;;;29.36;30.27
42411;BME280;28056;51.112;0.984;2022-07-21T12:33:01;101306.08;;;29.71;29.71
42411;BME280;28056;51.112;0.984;2022-07-21T12:35:31;101305.61;;;30.20;29.53
42411;BME280;28056;51.112;0.984;2022-07-21T12:38:05;101304.12;;;29.97;28.84
42411;BME280;28056;51.112;0.984;2022-07-21T12:40:34;101306.61;;;29.76;29.78
42411;BME280;28056;51.112;0.984;2022-07-21T12:43:07;101310.66;;;28.75;30.87
42411;BME280;28056;51.112;0.984;2022-07-21T12:45:53;101309.57;;;28.13;30.49
42411;BME280;28056;51.112;0.984;2022-07-21T12:48:23;101309.29;;;27.63;30.37
42411;BME280;28056;51.112;0.984;2022-07-21T12:51:09;101313.04;;;28.31;32.18
42411;BME280;28056;51.112;0.984;2022-07-21T12:53:41;101312.36;;;26.97;32.66
42411;BME280;28056;51.112;0.984;2022-07-21T12:56:09;101312.95;;;27.19;34.69
42411;BME280;28056;51.112;0.984;2022-07-21T12:58:38;101315.61;;;27.27;35.65
42411;BME280;28056;51.112;0.984;2022-07-21T13:01:06;101315.65;;;26.72;36.21
42411;BME280;28056;51.112;0.984;2022-07-21T13:03:35;101315.01;;;25.61;37.93
42411;BME280;28056;51.112;0.984;2022-07-21T13:06:05;101319.38;;;26.69;35.78
42411;BME280;28056;51.112;0.984;2022-07-21T13:08:33;101319.60;;;25.23;38.21